Airfield :
LOGIN :

Register | Disclaimer

   EN    FR    IT 

 










Legend :    VFR   Marginal VFR   IFR   Intensive IFR   Very Intensive IFR
Visi :
Ceiling :
>= 8 km
>= 3000ft
5 to 8 km
1000 to 3000 ft
1500m to 5 km
500 to 1000 ft
800 to 1500m
200 to 500 ft
< 800m
< 200 ft
Symbols :   Thunderstorms  Fog  Heavy snow  Heavy precipitations  Wind > 20 kt
SIGMETs :     Misc.  Thunderstorms  Icing  Turbulence  Mountain Waves  Volcanic Ashes






- Airport Elevation : 289 ft


LFYR - Romorantin Pruniers

CURRENT METAR :
  • 212300Z AUTO 21015KT 9999 -RADZ BKN024 BKN037 BKN046 10/07 Q0993 TEMPO 24020G35KT 3000 SHRA SCT010 BKN020TCU

EXPIRED METARs :
  • 212230Z AUTO 21015KT 180V240 9999 FEW025/// BKN042/// BKN052/// ///CB 10/07 Q0993 TEMPO 24020G35KT 3000 SHRA
  • 212200Z AUTO 21017KT 180V250 9999 BKN021/// BKN029/// BKN042/// ///TCU 11/07 Q0993 TEMPO 24020G35KT 3000 SHRA
  • 212130Z AUTO 22017KT 9999 BKN023 BKN029 OVC042 10/07 Q0993 TEMPO 24020G35KT 3000 SHRA SCT010 BKN020TCU
  • 212100Z AUTO 22015G28KT 190V260 9999 BKN028 BKN033 BKN039 10/07 Q0993 TEMPO 3000 SHRA SCT010 BKN020TCU
  • 212030Z AUTO 22014G24KT 190V260 9999 FEW037 BKN046 BKN056 10/07 Q0993 TEMPO 24020G35KT 3000 SHRA SCT010 BKN020TCU

Expired Forecast.



MET'MAP, your aeronautical weather chart ! - Copyright ORBIFLY December 2007 - Disclaimer

ORBIFLY MET'MAP TEAM :

Programming & Development : Alexandra Zaïnal
Concept & original design : Baudouin d'Aumeries
Assistance for programming : Marc-Olivier Méhu
Technical & hardware support : Manuel Goepfert

Contact : metmap@orbifly.com




SOURCES & CREDITS :

   NOAA